Time;durP1;ratioP1;P1;durP2;ratioP2;P2;SDS_P1;SDS_P2;PMS_P1;PMS_P2;Temp;Humidity;BMP_temperature;BMP_pressure;BME280_temperature;BME280_humidity;BME280_pressure;Samples;Min_cycle;Max_cycle;Signal;HPM_P1;HPM_P2
2022/08/16 00:02:09;;;;;;;;;31.00;29.33;;;;;;;;4990997;28;45547;-67
2022/08/16 00:04:34;;;;;;;;;36.33;32.00;;;;;;;;4987680;28;45453;-65
2022/08/16 00:07:00;;;;;;;;;34.33;32.33;;;;;;;;4991558;28;45439;-67
2022/08/16 00:09:25;;;;;;;;;32.67;31.33;;;;;;;;4990503;28;45479;-67
2022/08/16 00:11:50;;;;;;;;;34.00;30.33;;;;;;;;4992560;28;45408;-68
2022/08/16 00:14:21;;;;;;;;;32.00;29.67;;;;;;;;4983506;28;45369;-66
2022/08/16 00:16:47;;;;;;;;;34.67;32.33;;;;;;;;4994126;28;46115;-66
2022/08/16 00:19:14;;;;;;;;;32.67;31.67;;;;;;;;5000357;28;45416;-66
2022/08/16 00:21:39;;;;;;;;;35.33;32.00;;;;;;;;4981676;28;45552;-67
2022/08/16 00:24:05;;;;;;;;;34.00;32.00;;;;;;;;4983886;28;45545;-67
2022/08/16 00:26:30;;;;;;;;;35.67;33.33;;;;;;;;4976104;28;45921;-65
2022/08/16 00:28:55;;;;;;;;;32.67;31.67;;;;;;;;4992008;28;45442;-66
2022/08/16 00:31:20;;;;;;;;;31.33;30.67;;;;;;;;5013424;28;45425;-65
2022/08/16 00:33:46;;;;;;;;;36.00;32.33;;;;;;;;4996146;28;45379;-66
2022/08/16 00:36:11;;;;;;;;;30.67;29.67;;;;;;;;4975993;28;45441;-66
2022/08/16 00:38:36;;;;;;;;;36.67;33.67;;;;;;;;4975992;28;45576;-65
2022/08/16 00:41:02;;;;;;;;;31.67;30.67;;;;;;;;4969774;28;45377;-67
2022/08/16 00:43:34;;;;;;;;;36.00;32.33;;;;;;;;4980993;28;45395;-67
2022/08/16 00:46:17;;;;;;;;;34.00;32.00;;;;;;;;4980081;28;46188;-65
2022/08/16 00:48:44;;;;;;;;;31.00;30.33;;;;;;;;4995580;28;45483;-67
2022/08/16 00:51:09;;;;;;;;;32.33;30.00;;;;;;;;4979257;28;45543;-66
2022/08/16 00:53:34;;;;;;;;;33.00;31.67;;;;;;;;4995564;28;45424;-66
2022/08/16 00:56:02;;;;;;;;;30.33;28.67;;;;;;;;4989398;28;45415;-66
2022/08/16 00:58:29;;;;;;;;;35.00;31.00;;;;;;;;4990297;28;45617;-65
2022/08/16 01:00:55;;;;;;;;;35.67;32.00;;;;;;;;4988406;28;45356;-67
2022/08/16 01:03:21;;;;;;;;;34.33;30.00;;;;;;;;4991670;28;45480;-65
2022/08/16 01:05:47;;;;;;;;;32.00;30.67;;;;;;;;4985643;28;45473;-66
2022/08/16 01:08:13;;;;;;;;;32.33;30.00;;;;;;;;4995288;28;45519;-66
2022/08/16 01:10:40;;;;;;;;;33.33;31.00;;;;;;;;5006673;28;45572;-65
2022/08/16 01:13:07;;;;;;;;;28.33;28.33;;;;;;;;5006378;28;45542;-64
2022/08/16 01:15:34;;;;;;;;;38.00;32.67;;;;;;;;4981903;28;46102;-65
2022/08/16 01:18:01;;;;;;;;;33.33;32.00;;;;;;;;4963724;28;45495;-66
2022/08/16 01:20:28;;;;;;;;;32.00;31.00;;;;;;;;4994013;28;45472;-67
2022/08/16 01:23:00;;;;;;;;;37.00;31.67;;;;;;;;4979283;28;45493;-65
2022/08/16 01:25:28;;;;;;;;;35.67;32.00;;;;;;;;4994908;28;46291;-65
2022/08/16 01:27:55;;;;;;;;;34.33;32.00;;;;;;;;4985681;28;45485;-65
2022/08/16 01:30:23;;;;;;;;;33.00;31.33;;;;;;;;4987030;28;45421;-65
2022/08/16 01:32:49;;;;;;;;;31.67;29.33;;;;;;;;4991679;28;45515;-67
2022/08/16 01:35:17;;;;;;;;;28.67;28.67;;;;;;;;4980653;28;45408;-67
2022/08/16 01:37:45;;;;;;;;;37.00;32.67;;;;;;;;4977503;28;45321;-66
2022/08/16 01:40:11;;;;;;;;;37.33;34.67;;;;;;;;4980579;28;45372;-67
2022/08/16 01:42:36;;;;;;;;;35.00;33.00;;;;;;;;4977094;28;45462;-67
2022/08/16 01:45:02;;;;;;;;;35.67;32.67;;;;;;;;4981073;28;46073;-67
2022/08/16 01:47:28;;;;;;;;;36.00;32.33;;;;;;;;4995061;28;45938;-66
2022/08/16 01:49:53;;;;;;;;;29.00;26.33;;;;;;;;4970995;28;45586;-65
2022/08/16 01:52:19;;;;;;;;;28.67;27.33;;;;;;;;4990348;28;45832;-67
2022/08/16 01:54:44;;;;;;;;;33.67;32.67;;;;;;;;4994637;28;45555;-66
2022/08/16 01:57:10;;;;;;;;;32.00;30.33;;;;;;;;4991858;28;45444;-64
2022/08/16 01:59:36;;;;;;;;;34.67;32.67;;;;;;;;4967938;28;45540;-66
2022/08/16 02:02:02;;;;;;;;;31.00;30.00;;;;;;;;4988050;28;45472;-67
2022/08/16 02:04:28;;;;;;;;;36.67;32.67;;;;;;;;4979843;28;46311;-66
2022/08/16 02:06:53;;;;;;;;;37.67;33.00;;;;;;;;4979302;28;45675;-65
2022/08/16 02:09:21;;;;;;;;;33.67;31.00;;;;;;;;4997744;28;45566;-66
2022/08/16 02:11:48;;;;;;;;;40.00;35.00;;;;;;;;4989627;28;45478;-65
2022/08/16 02:14:13;;;;;;;;;33.33;32.00;;;;;;;;4985470;28;45553;-65
2022/08/16 02:16:39;;;;;;;;;35.00;31.33;;;;;;;;4995271;28;45392;-65
2022/08/16 02:19:05;;;;;;;;;29.00;28.67;;;;;;;;4995400;28;45598;-66
2022/08/16 02:21:30;;;;;;;;;28.33;28.33;;;;;;;;4979710;28;45599;-66
2022/08/16 02:23:56;;;;;;;;;29.67;28.33;;;;;;;;4988751;28;46034;-65
2022/08/16 02:26:21;;;;;;;;;35.00;32.67;;;;;;;;4995867;28;45516;-66
2022/08/16 02:28:47;;;;;;;;;36.67;32.00;;;;;;;;4992334;28;45459;-67
2022/08/16 02:31:13;;;;;;;;;30.33;30.33;;;;;;;;4978853;28;45439;-66
2022/08/16 02:33:39;;;;;;;;;32.00;30.33;;;;;;;;4978516;28;46127;-65
2022/08/16 02:36:05;;;;;;;;;36.00;32.67;;;;;;;;4986220;28;45458;-67
2022/08/16 02:38:31;;;;;;;;;36.33;32.67;;;;;;;;4995160;28;45455;-66
2022/08/16 02:40:57;;;;;;;;;35.67;33.33;;;;;;;;4997317;28;45636;-66
2022/08/16 02:43:23;;;;;;;;;40.67;35.33;;;;;;;;4978592;28;45376;-66
2022/08/16 02:45:48;;;;;;;;;37.67;34.00;;;;;;;;4972958;28;45528;-66
2022/08/16 02:48:14;;;;;;;;;35.00;31.33;;;;;;;;4987111;28;45442;-65
2022/08/16 02:50:39;;;;;;;;;32.00;31.00;;;;;;;;4992009;28;45496;-65
2022/08/16 02:53:04;;;;;;;;;33.00;32.00;;;;;;;;4993442;28;46142;-65
2022/08/16 02:55:29;;;;;;;;;34.00;32.33;;;;;;;;4993854;28;45475;-66
2022/08/16 02:57:54;;;;;;;;;32.33;31.00;;;;;;;;4978738;28;45334;-67
2022/08/16 03:00:20;;;;;;;;;37.33;32.67;;;;;;;;4985201;28;45628;-66
2022/08/16 03:02:45;;;;;;;;;34.00;30.33;;;;;;;;4984854;28;46128;-67
2022/08/16 03:05:12;;;;;;;;;34.00;32.00;;;;;;;;4993332;28;45518;-65
2022/08/16 03:07:37;;;;;;;;;33.67;32.33;;;;;;;;4981621;28;45449;-67
2022/08/16 03:10:04;;;;;;;;;38.00;33.00;;;;;;;;4982373;28;45575;-67
2022/08/16 03:12:29;;;;;;;;;35.00;32.67;;;;;;;;4986954;28;45479;-66
2022/08/16 03:14:55;;;;;;;;;35.67;33.00;;;;;;;;4990896;28;45506;-67
2022/08/16 03:17:20;;;;;;;;;31.00;30.00;;;;;;;;4984913;28;45510;-67
2022/08/16 03:19:45;;;;;;;;;32.00;31.00;;;;;;;;4996669;28;45613;-65
2022/08/16 03:22:10;;;;;;;;;43.00;33.00;;;;;;;;4995975;28;45480;-65
2022/08/16 03:24:35;;;;;;;;;34.33;32.00;;;;;;;;4997445;28;45614;-65
2022/08/16 03:27:01;;;;;;;;;35.33;32.67;;;;;;;;4997542;28;45547;-65
2022/08/16 03:29:28;;;;;;;;;29.00;29.00;;;;;;;;4996803;28;45542;-67
2022/08/16 03:31:54;;;;;;;;;34.67;32.67;;;;;;;;4996162;28;45531;-66
2022/08/16 03:34:20;;;;;;;;;34.00;31.00;;;;;;;;4997373;28;45373;-67
2022/08/16 03:36:45;;;;;;;;;29.00;29.00;;;;;;;;4982814;28;45442;-66
2022/08/16 03:39:11;;;;;;;;;35.00;32.67;;;;;;;;4994251;28;45371;-66
2022/08/16 03:41:36;;;;;;;;;37.00;33.33;;;;;;;;4980174;28;46060;-65
2022/08/16 03:44:01;;;;;;;;;34.00;32.00;;;;;;;;4977316;28;45604;-67
2022/08/16 03:46:27;;;;;;;;;35.33;32.00;;;;;;;;4985386;28;45413;-67
2022/08/16 03:48:54;;;;;;;;;33.33;31.67;;;;;;;;4982308;28;45643;-66
2022/08/16 03:51:19;;;;;;;;;37.00;32.33;;;;;;;;4978882;28;46511;-67
2022/08/16 03:53:44;;;;;;;;;30.00;29.67;;;;;;;;4980839;28;45426;-67
2022/08/16 03:56:10;;;;;;;;;33.00;29.33;;;;;;;;4977413;28;45532;-67
2022/08/16 03:58:36;;;;;;;;;32.67;31.67;;;;;;;;4979418;28;45361;-66
2022/08/16 04:01:01;;;;;;;;;36.00;32.67;;;;;;;;4994907;28;45448;-66
2022/08/16 04:03:27;;;;;;;;;33.00;30.67;;;;;;;;4995039;28;45564;-64
2022/08/16 04:05:52;;;;;;;;;32.00;30.33;;;;;;;;4994632;28;45428;-65
2022/08/16 04:08:20;;;;;;;;;34.67;32.00;;;;;;;;4983238;28;45739;-67
2022/08/16 04:10:45;;;;;;;;;31.67;30.67;;;;;;;;4987492;28;46222;-66
2022/08/16 04:13:10;;;;;;;;;34.67;31.67;;;;;;;;4979868;28;45433;-64
2022/08/16 04:15:37;;;;;;;;;28.67;28.67;;;;;;;;4989920;28;45439;-65
2022/08/16 04:18:02;;;;;;;;;36.33;32.33;;;;;;;;4984892;28;45540;-65
2022/08/16 04:20:29;;;;;;;;;30.67;30.00;;;;;;;;4973750;28;46917;-66
2022/08/16 04:22:54;;;;;;;;;32.00;31.00;;;;;;;;4996516;28;45424;-66
2022/08/16 04:25:20;;;;;;;;;35.33;31.67;;;;;;;;4995546;28;45509;-67
2022/08/16 04:27:45;;;;;;;;;34.67;32.00;;;;;;;;4994331;28;45362;-65
2022/08/16 04:30:12;;;;;;;;;33.33;29.00;;;;;;;;4990517;28;45443;-65
2022/08/16 04:32:38;;;;;;;;;30.33;28.33;;;;;;;;4995961;28;45494;-65
2022/08/16 04:35:07;;;;;;;;;31.67;30.33;;;;;;;;4994966;28;45694;-66
2022/08/16 04:37:33;;;;;;;;;34.67;31.33;;;;;;;;4979573;28;45607;-67
2022/08/16 04:39:58;;;;;;;;;29.33;29.00;;;;;;;;4988321;28;46609;-65
2022/08/16 04:42:23;;;;;;;;;32.00;30.33;;;;;;;;4976801;28;45508;-68
2022/08/16 04:44:49;;;;;;;;;29.00;28.00;;;;;;;;4976857;28;45404;-65
2022/08/16 04:47:14;;;;;;;;;28.00;27.67;;;;;;;;4990312;28;45529;-64
2022/08/16 04:49:39;;;;;;;;;29.33;28.33;;;;;;;;4994347;28;45561;-66
2022/08/16 04:52:04;;;;;;;;;28.00;27.67;;;;;;;;4995603;28;45478;-65
2022/08/16 04:54:29;;;;;;;;;25.67;25.67;;;;;;;;4991897;28;45730;-65
2022/08/16 04:56:55;;;;;;;;;29.00;26.33;;;;;;;;4994738;28;45537;-66
2022/08/16 04:59:21;;;;;;;;;30.33;29.67;;;;;;;;4994306;28;45442;-64
2022/08/16 05:01:46;;;;;;;;;27.67;27.00;;;;;;;;4995476;28;45652;-66
2022/08/16 05:04:11;;;;;;;;;28.00;27.00;;;;;;;;4995938;28;45440;-65
2022/08/16 05:06:36;;;;;;;;;24.00;23.67;;;;;;;;4994530;28;45528;-65
2022/08/16 05:09:02;;;;;;;;;28.00;27.00;;;;;;;;4995792;28;46298;-66
2022/08/16 05:11:29;;;;;;;;;27.33;27.33;;;;;;;;4994618;28;45452;-65
2022/08/16 05:13:54;;;;;;;;;30.67;29.00;;;;;;;;4996157;28;45340;-67
2022/08/16 05:16:22;;;;;;;;;28.00;27.00;;;;;;;;4995238;28;45489;-65
2022/08/16 05:18:48;;;;;;;;;28.33;27.67;;;;;;;;4994560;28;45416;-66
2022/08/16 05:21:13;;;;;;;;;26.67;25.00;;;;;;;;4994422;28;45688;-65
2022/08/16 05:23:38;;;;;;;;;27.67;27.67;;;;;;;;4995955;28;45435;-66
2022/08/16 05:26:04;;;;;;;;;27.33;25.33;;;;;;;;4992966;28;45591;-66
2022/08/16 05:28:29;;;;;;;;;31.67;29.33;;;;;;;;4991479;28;46037;-66
2022/08/16 05:30:55;;;;;;;;;26.67;26.67;;;;;;;;4993030;28;45492;-65
2022/08/16 05:33:20;;;;;;;;;23.67;23.67;;;;;;;;4998774;28;45497;-65
2022/08/16 05:35:46;;;;;;;;;31.67;29.67;;;;;;;;4999172;28;45405;-64
2022/08/16 05:38:12;;;;;;;;;31.67;30.00;;;;;;;;4996639;28;45464;-64
2022/08/16 05:40:37;;;;;;;;;26.33;23.00;;;;;;;;4981106;28;45433;-64
2022/08/16 05:43:02;;;;;;;;;25.67;25.67;;;;;;;;4999025;28;45483;-64
2022/08/16 05:45:27;;;;;;;;;25.67;24.67;;;;;;;;4993753;28;45562;-65
2022/08/16 05:47:53;;;;;;;;;25.33;25.33;;;;;;;;4998858;28;46256;-67
2022/08/16 05:50:18;;;;;;;;;27.00;26.00;;;;;;;;4998409;28;45443;-64
2022/08/16 05:52:43;;;;;;;;;24.67;24.00;;;;;;;;4999042;28;45322;-66
2022/08/16 05:55:08;;;;;;;;;26.67;25.00;;;;;;;;4997761;28;45305;-66
2022/08/16 05:57:33;;;;;;;;;27.33;27.00;;;;;;;;4997537;28;45835;-66
2022/08/16 05:59:59;;;;;;;;;28.00;26.67;;;;;;;;4993179;28;45454;-63
2022/08/16 06:02:26;;;;;;;;;29.67;29.33;;;;;;;;4997695;28;45713;-63
2022/08/16 06:04:51;;;;;;;;;31.00;28.67;;;;;;;;4996259;28;45591;-63
2022/08/16 06:07:16;;;;;;;;;28.00;28.00;;;;;;;;4998461;28;46283;-64
2022/08/16 06:09:42;;;;;;;;;26.33;24.67;;;;;;;;4998693;28;45443;-64
2022/08/16 06:12:07;;;;;;;;;26.33;26.33;;;;;;;;4996828;28;45752;-64
2022/08/16 06:14:32;;;;;;;;;26.00;26.00;;;;;;;;4995794;28;45451;-63
2022/08/16 06:16:58;;;;;;;;;29.33;28.67;;;;;;;;4985041;28;45986;-63
2022/08/16 06:19:24;;;;;;;;;35.33;30.67;;;;;;;;4998122;28;45524;-62
2022/08/16 06:21:49;;;;;;;;;27.67;25.67;;;;;;;;4995201;28;45491;-62
2022/08/16 06:24:14;;;;;;;;;28.00;27.00;;;;;;;;4996812;28;45360;-64
2022/08/16 06:26:40;;;;;;;;;25.33;24.33;;;;;;;;4996111;28;45556;-64
2022/08/16 06:29:05;;;;;;;;;26.33;25.33;;;;;;;;4998430;28;45476;-63
2022/08/16 06:31:30;;;;;;;;;35.33;33.00;;;;;;;;4996433;28;45423;-61
2022/08/16 06:33:55;;;;;;;;;33.33;28.00;;;;;;;;4996761;28;45443;-61
2022/08/16 06:36:22;;;;;;;;;27.33;26.33;;;;;;;;4998481;28;46048;-62
2022/08/16 06:38:48;;;;;;;;;25.33;25.33;;;;;;;;4996669;28;45438;-62
2022/08/16 06:41:13;;;;;;;;;26.33;26.00;;;;;;;;4996175;28;45349;-62
2022/08/16 06:43:38;;;;;;;;;27.33;27.33;;;;;;;;4997273;28;45301;-64
2022/08/16 06:46:04;;;;;;;;;25.00;25.00;;;;;;;;4995899;28;45560;-63
2022/08/16 06:48:30;;;;;;;;;27.67;26.33;;;;;;;;4978163;28;45491;-62
2022/08/16 06:50:57;;;;;;;;;28.67;25.33;;;;;;;;4981364;28;45500;-62
2022/08/16 06:53:22;;;;;;;;;26.33;26.33;;;;;;;;4996584;28;45368;-63
2022/08/16 06:55:47;;;;;;;;;28.67;27.33;;;;;;;;4992376;28;45971;-62
2022/08/16 06:58:12;;;;;;;;;29.33;28.00;;;;;;;;4996938;28;45453;-63
2022/08/16 07:00:37;;;;;;;;;26.67;25.33;;;;;;;;4996915;28;45393;-65
2022/08/16 07:03:03;;;;;;;;;28.67;24.00;;;;;;;;4994147;28;45536;-64
2022/08/16 07:05:30;;;;;;;;;24.00;23.67;;;;;;;;4996288;28;46289;-62
2022/08/16 07:07:56;;;;;;;;;24.00;23.33;;;;;;;;4980076;28;45374;-61
2022/08/16 07:10:21;;;;;;;;;26.67;26.67;;;;;;;;4997688;28;45415;-65
2022/08/16 07:12:49;;;;;;;;;28.00;26.67;;;;;;;;4996100;28;45636;-63
2022/08/16 07:15:15;;;;;;;;;27.00;24.00;;;;;;;;4977558;28;46468;-64
2022/08/16 07:17:40;;;;;;;;;29.33;25.33;;;;;;;;4995951;28;45432;-62
2022/08/16 07:20:07;;;;;;;;;26.00;26.00;;;;;;;;4996123;28;45543;-61
2022/08/16 07:22:32;;;;;;;;;23.67;23.67;;;;;;;;4996920;28;45609;-62
2022/08/16 07:24:57;;;;;;;;;21.67;21.67;;;;;;;;4996817;28;45447;-65
2022/08/16 07:27:22;;;;;;;;;24.33;24.33;;;;;;;;4996937;28;45373;-65
2022/08/16 07:29:48;;;;;;;;;22.33;22.33;;;;;;;;4996917;28;45396;-62
2022/08/16 07:32:13;;;;;;;;;24.33;24.33;;;;;;;;4996910;28;45627;-62
2022/08/16 07:34:38;;;;;;;;;26.33;25.33;;;;;;;;4996449;28;46297;-64
2022/08/16 07:37:05;;;;;;;;;29.00;28.00;;;;;;;;4996644;28;45399;-63
2022/08/16 07:39:31;;;;;;;;;48.00;40.33;;;;;;;;4996799;28;45452;-62
2022/08/16 07:41:56;;;;;;;;;21.33;21.33;;;;;;;;4996674;28;45420;-62
2022/08/16 07:44:21;;;;;;;;;23.67;23.00;;;;;;;;4996511;28;45518;-62
2022/08/16 07:46:46;;;;;;;;;30.33;30.00;;;;;;;;4996466;28;45437;-64
2022/08/16 07:49:12;;;;;;;;;25.00;25.00;;;;;;;;4996347;28;45417;-64
2022/08/16 07:51:37;;;;;;;;;25.67;25.33;;;;;;;;4996658;28;45414;-62
2022/08/16 07:54:03;;;;;;;;;28.00;25.33;;;;;;;;4996506;28;46117;-61
2022/08/16 07:56:28;;;;;;;;;28.67;27.67;;;;;;;;4996213;28;45373;-63
2022/08/16 07:58:54;;;;;;;;;23.33;23.33;;;;;;;;4996738;28;45488;-62
2022/08/16 08:01:21;;;;;;;;;24.33;23.33;;;;;;;;4996413;28;45379;-65
2022/08/16 08:03:47;;;;;;;;;22.00;21.67;;;;;;;;4996229;28;46930;-64
2022/08/16 08:06:12;;;;;;;;;22.33;21.67;;;;;;;;4996415;28;45389;-63
2022/08/16 08:08:38;;;;;;;;;27.00;24.67;;;;;;;;4996628;28;45454;-62
2022/08/16 08:11:03;;;;;;;;;25.00;25.00;;;;;;;;4996454;28;45454;-62
2022/08/16 08:13:29;;;;;;;;;24.67;22.67;;;;;;;;4995848;28;46711;-64
2022/08/16 08:15:55;;;;;;;;;21.33;21.33;;;;;;;;4995985;28;45475;-64
2022/08/16 08:18:21;;;;;;;;;25.67;22.67;;;;;;;;4996238;28;45464;-61
2022/08/16 08:20:46;;;;;;;;;45.33;38.00;;;;;;;;4996096;28;45630;-64
2022/08/16 08:23:13;;;;;;;;;23.33;23.00;;;;;;;;4995803;28;45999;-64
2022/08/16 08:25:39;;;;;;;;;21.67;21.33;;;;;;;;4978404;28;45480;-64
2022/08/16 08:28:05;;;;;;;;;24.67;23.67;;;;;;;;4996041;28;45469;-65
2022/08/16 08:30:31;;;;;;;;;19.67;19.67;;;;;;;;4995854;28;45404;-63
2022/08/16 08:32:56;;;;;;;;;21.67;20.67;;;;;;;;4995569;28;46096;-64
2022/08/16 08:35:21;;;;;;;;;19.00;19.00;;;;;;;;4995693;28;45414;-62
2022/08/16 08:37:47;;;;;;;;;22.00;21.00;;;;;;;;4995718;28;45374;-63
2022/08/16 08:40:12;;;;;;;;;23.00;23.00;;;;;;;;4995965;28;45572;-66
2022/08/16 08:42:39;;;;;;;;;28.67;27.00;;;;;;;;4995623;28;46506;-63
2022/08/16 08:45:05;;;;;;;;;18.33;18.33;;;;;;;;4995752;28;45397;-64
2022/08/16 08:47:30;;;;;;;;;27.67;27.33;;;;;;;;4995787;28;45508;-65
2022/08/16 08:49:55;;;;;;;;;26.00;24.00;;;;;;;;4995318;28;45495;-63
2022/08/16 08:52:21;;;;;;;;;45.00;37.67;;;;;;;;4995444;28;45468;-63
2022/08/16 08:54:46;;;;;;;;;21.33;20.33;;;;;;;;4995682;28;45478;-63
2022/08/16 08:57:12;;;;;;;;;19.33;19.33;;;;;;;;4995641;28;45481;-64
2022/08/16 08:59:37;;;;;;;;;18.67;18.67;;;;;;;;4978770;28;45461;-63
2022/08/16 09:02:02;;;;;;;;;20.00;20.00;;;;;;;;4995384;28;45432;-63
2022/08/16 09:04:28;;;;;;;;;18.67;16.33;;;;;;;;4995621;28;45384;-63
2022/08/16 09:06:53;;;;;;;;;20.67;20.67;;;;;;;;4996876;28;45364;-65
2022/08/16 09:09:19;;;;;;;;;22.00;22.00;;;;;;;;4999170;28;45523;-65
2022/08/16 09:11:45;;;;;;;;;18.33;16.67;;;;;;;;4999097;28;45406;-65
2022/08/16 09:14:10;;;;;;;;;36.00;32.67;;;;;;;;4998871;28;45541;-63
2022/08/16 09:16:35;;;;;;;;;21.67;19.67;;;;;;;;4999102;28;45479;-64
2022/08/16 09:19:00;;;;;;;;;18.00;17.67;;;;;;;;4998682;28;45643;-63
2022/08/16 09:21:26;;;;;;;;;19.33;18.33;;;;;;;;4998664;28;45349;-64
2022/08/16 09:23:51;;;;;;;;;16.00;16.00;;;;;;;;4998690;28;45512;-65
2022/08/16 09:26:17;;;;;;;;;17.33;17.33;;;;;;;;4998820;28;45414;-65
2022/08/16 09:28:44;;;;;;;;;17.00;16.33;;;;;;;;4998794;28;45583;-65
2022/08/16 09:31:10;;;;;;;;;15.33;13.33;;;;;;;;4998399;28;46128;-63
2022/08/16 09:33:35;;;;;;;;;27.33;23.67;;;;;;;;4998648;28;45380;-65
2022/08/16 09:36:00;;;;;;;;;20.00;17.00;;;;;;;;4981036;28;45500;-65
2022/08/16 09:38:26;;;;;;;;;20.67;19.33;;;;;;;;4998390;28;45515;-63
2022/08/16 09:40:51;;;;;;;;;22.67;20.67;;;;;;;;4980208;28;46415;-65
2022/08/16 09:43:18;;;;;;;;;17.67;16.00;;;;;;;;4998277;28;45472;-64
2022/08/16 09:45:44;;;;;;;;;19.00;19.00;;;;;;;;4998367;28;45400;-66
2022/08/16 09:48:10;;;;;;;;;14.67;14.33;;;;;;;;4998389;28;45462;-63
2022/08/16 09:50:36;;;;;;;;;30.67;30.00;;;;;;;;4998181;28;46043;-65
2022/08/16 09:53:03;;;;;;;;;15.00;15.00;;;;;;;;4998292;28;45420;-66
2022/08/16 09:55:28;;;;;;;;;16.50;16.50;;;;;;;;4998665;28;45501;-65
2022/08/16 09:57:53;;;;;;;;;20.00;20.00;;;;;;;;4998774;28;45404;-64
2022/08/16 10:00:19;;;;;;;;;15.33;14.33;;;;;;;;4997247;28;45415;-64
2022/08/16 10:02:44;;;;;;;;;17.00;17.00;;;;;;;;4998261;28;45408;-65
2022/08/16 10:05:10;;;;;;;;;18.00;18.00;;;;;;;;4998397;28;45371;-65
2022/08/16 10:07:35;;;;;;;;;19.33;19.33;;;;;;;;4998195;28;45526;-65
2022/08/16 10:10:00;;;;;;;;;18.00;16.00;;;;;;;;4998019;28;46018;-66
2022/08/16 10:15:13;;;;;;;;;17.33;17.33;;;;;;;;4998053;28;45467;-63
2022/08/16 10:17:41;;;;;;;;;19.67;19.00;;;;;;;;4995471;28;45349;-63
2022/08/16 10:20:09;;;;;;;;;17.33;17.00;;;;;;;;4979393;28;48041;-62
2022/08/16 10:22:34;;;;;;;;;17.33;16.00;;;;;;;;4997208;28;45434;-63
2022/08/16 10:24:59;;;;;;;;;18.67;17.67;;;;;;;;4997908;28;45421;-63
2022/08/16 10:27:24;;;;;;;;;19.00;19.00;;;;;;;;4998016;28;45588;-61
2022/08/16 10:29:49;;;;;;;;;18.33;17.00;;;;;;;;4997756;28;45369;-65
2022/08/16 10:32:15;;;;;;;;;17.33;17.33;;;;;;;;4998037;28;45543;-63
2022/08/16 10:34:40;;;;;;;;;19.00;17.00;;;;;;;;4990464;28;45479;-64
2022/08/16 10:37:05;;;;;;;;;14.33;14.33;;;;;;;;4994729;28;45709;-63
2022/08/16 10:39:30;;;;;;;;;19.00;17.25;;;;;;;;4989616;28;45548;-61
2022/08/16 10:41:55;;;;;;;;;16.67;16.00;;;;;;;;4991004;28;45564;-63
2022/08/16 10:44:21;;;;;;;;;19.33;17.33;;;;;;;;4997112;28;45421;-63
2022/08/16 10:46:47;;;;;;;;;23.00;19.33;;;;;;;;4997467;28;45535;-66
2022/08/16 10:49:13;;;;;;;;;19.67;18.00;;;;;;;;4996975;28;46082;-63
2022/08/16 10:51:38;;;;;;;;;18.33;17.67;;;;;;;;4997371;28;45637;-65
2022/08/16 10:54:04;;;;;;;;;20.33;19.33;;;;;;;;4997446;28;45430;-63
2022/08/16 10:56:30;;;;;;;;;20.00;18.00;;;;;;;;4993728;28;45526;-63
2022/08/16 10:58:57;;;;;;;;;22.33;19.33;;;;;;;;4992915;28;45440;-62
2022/08/16 11:01:24;;;;;;;;;19.33;19.33;;;;;;;;4977513;28;45503;-65
2022/08/16 11:03:49;;;;;;;;;16.50;16.50;;;;;;;;4977325;28;45381;-62
2022/08/16 11:06:15;;;;;;;;;17.00;17.00;;;;;;;;4977047;28;45581;-64
2022/08/16 11:08:40;;;;;;;;;17.25;16.50;;;;;;;;4976310;28;45448;-65
2022/08/16 11:11:05;;;;;;;;;20.25;17.75;;;;;;;;4977973;28;45405;-64
2022/08/16 11:13:31;;;;;;;;;16.00;15.50;;;;;;;;4995166;28;45418;-64
2022/08/16 11:15:57;;;;;;;;;17.75;16.50;;;;;;;;4996594;28;45420;-64
2022/08/16 11:18:23;;;;;;;;;15.50;14.75;;;;;;;;4996526;28;45377;-66
2022/08/16 11:20:49;;;;;;;;;19.00;19.00;;;;;;;;4977326;28;45715;-66
2022/08/16 11:23:14;;;;;;;;;24.33;23.67;;;;;;;;4986407;28;45369;-65
2022/08/16 11:25:39;;;;;;;;;73.50;64.50;;;;;;;;4996587;28;45329;-66
2022/08/16 11:28:05;;;;;;;;;49.00;40.67;;;;;;;;4983810;28;45394;-66
2022/08/16 11:30:32;;;;;;;;;19.75;19.75;;;;;;;;4989904;28;45546;-66
2022/08/16 11:32:57;;;;;;;;;29.33;28.33;;;;;;;;4996657;28;45385;-66
2022/08/16 11:35:24;;;;;;;;;21.33;21.00;;;;;;;;4978426;28;45572;-65
2022/08/16 11:37:51;;;;;;;;;26.25;25.25;;;;;;;;4982063;28;46009;-65
2022/08/16 11:40:17;;;;;;;;;24.00;24.00;;;;;;;;4996639;28;45545;-66
2022/08/16 11:42:42;;;;;;;;;22.50;22.50;;;;;;;;4996299;28;45453;-66
2022/08/16 11:45:08;;;;;;;;;20.25;19.00;;;;;;;;4996288;28;45715;-66
2022/08/16 11:47:33;;;;;;;;;22.00;20.00;;;;;;;;4995453;28;45911;-65
2022/08/16 11:49:59;;;;;;;;;17.50;17.50;;;;;;;;4996340;28;45406;-65
2022/08/16 11:52:24;;;;;;;;;18.75;18.75;;;;;;;;4996606;28;45389;-67
2022/08/16 11:54:49;;;;;;;;;20.00;20.00;;;;;;;;4996092;28;45404;-66
2022/08/16 11:57:15;;;;;;;;;20.25;20.25;;;;;;;;4994933;28;46993;-66
2022/08/16 11:59:40;;;;;;;;;21.33;21.33;;;;;;;;4997028;28;45467;-66
2022/08/16 12:02:06;;;;;;;;;38.00;33.00;;;;;;;;4996550;28;45477;-67
2022/08/16 12:04:32;;;;;;;;;19.75;19.75;;;;;;;;4995839;28;45443;-67
2022/08/16 12:06:58;;;;;;;;;23.00;23.00;;;;;;;;4973817;28;47798;-65
2022/08/16 12:09:24;;;;;;;;;17.25;15.00;;;;;;;;4976516;28;45557;-66
2022/08/16 12:11:49;;;;;;;;;17.00;17.00;;;;;;;;4958979;28;45462;-64
2022/08/16 12:14:14;;;;;;;;;17.00;15.50;;;;;;;;4975889;28;45674;-66
2022/08/16 12:16:39;;;;;;;;;17.75;17.75;;;;;;;;4975416;28;45516;-64
2022/08/16 12:19:06;;;;;;;;;18.25;18.00;;;;;;;;4976408;28;45445;-66
2022/08/16 12:21:32;;;;;;;;;26.33;24.67;;;;;;;;4976586;28;45377;-67
2022/08/16 12:23:57;;;;;;;;;39.00;34.00;;;;;;;;4975208;28;45420;-66
2022/08/16 12:26:23;;;;;;;;;18.25;17.50;;;;;;;;4976410;28;45476;-65
2022/08/16 12:28:49;;;;;;;;;20.25;20.25;;;;;;;;4976289;28;45406;-65
2022/08/16 12:31:14;;;;;;;;;18.50;17.50;;;;;;;;4958989;28;45425;-64
2022/08/16 12:33:42;;;;;;;;;17.00;17.00;;;;;;;;4976463;28;45290;-64
2022/08/16 12:36:08;;;;;;;;;20.25;19.50;;;;;;;;4975139;28;45913;-66
2022/08/16 12:38:34;;;;;;;;;21.25;21.25;;;;;;;;4976096;28;45438;-65
2022/08/16 12:41:00;;;;;;;;;19.50;19.50;;;;;;;;4975652;28;45410;-67
2022/08/16 12:43:25;;;;;;;;;21.25;21.25;;;;;;;;4975796;28;45445;-66
2022/08/16 12:45:52;;;;;;;;;20.00;19.00;;;;;;;;4975792;28;46067;-66
2022/08/16 12:51:06;;;;;;;;;21.75;21.75;;;;;;;;4975925;28;45482;-65
2022/08/16 12:53:34;;;;;;;;;19.50;19.50;;;;;;;;4976117;28;45413;-65
2022/08/16 12:56:01;;;;;;;;;18.50;18.50;;;;;;;;4975824;28;45973;-63
2022/08/16 12:58:26;;;;;;;;;21.00;21.00;;;;;;;;4976149;28;45463;-65
2022/08/16 13:00:52;;;;;;;;;15.00;15.00;;;;;;;;4975651;28;45383;-65
2022/08/16 13:03:18;;;;;;;;;18.50;17.00;;;;;;;;4975843;28;45426;-67
2022/08/16 13:05:43;;;;;;;;;27.00;27.00;;;;;;;;4975727;28;45397;-65
2022/08/16 13:08:13;;;;;;;;;18.25;17.00;;;;;;;;4975675;28;45523;-66
2022/08/16 13:10:39;;;;;;;;;21.00;21.00;;;;;;;;4975874;28;45501;-66
2022/08/16 13:13:06;;;;;;;;;19.25;19.25;;;;;;;;4975849;28;45445;-66
2022/08/16 13:15:32;;;;;;;;;20.00;18.75;;;;;;;;4975637;28;45433;-64
2022/08/16 13:17:57;;;;;;;;;18.50;18.50;;;;;;;;4975590;28;45691;-66
2022/08/16 13:20:24;;;;;;;;;17.00;16.25;;;;;;;;4975883;28;45503;-65
2022/08/16 13:22:53;;;;;;;;;14.50;14.50;;;;;;;;4975646;28;45386;-63
2022/08/16 13:25:20;;;;;;;;;16.75;16.75;;;;;;;;4974719;28;46395;-63
2022/08/16 13:27:45;;;;;;;;;19.50;18.75;;;;;;;;4975495;28;45396;-66
2022/08/16 13:30:11;;;;;;;;;21.00;19.25;;;;;;;;4975544;28;45458;-64
2022/08/16 13:32:36;;;;;;;;;16.50;14.50;;;;;;;;4975312;28;45422;-63
2022/08/16 13:35:02;;;;;;;;;19.25;17.50;;;;;;;;4975002;28;46105;-65
2022/08/16 13:37:27;;;;;;;;;18.50;17.50;;;;;;;;4975195;28;45449;-64
2022/08/16 13:39:52;;;;;;;;;17.25;16.75;;;;;;;;4975316;28;45501;-64
2022/08/16 13:42:19;;;;;;;;;19.25;17.25;;;;;;;;4975428;28;45564;-64
2022/08/16 13:44:44;;;;;;;;;15.25;15.25;;;;;;;;4975111;28;45391;-65
2022/08/16 13:47:10;;;;;;;;;17.00;17.00;;;;;;;;4975155;28;45441;-65
2022/08/16 13:49:35;;;;;;;;;18.25;16.00;;;;;;;;4975018;28;45393;-64
2022/08/16 13:52:00;;;;;;;;;16.75;16.75;;;;;;;;4975330;28;45383;-65
2022/08/16 13:54:25;;;;;;;;;21.75;19.25;;;;;;;;4978350;28;45485;-66
2022/08/16 13:56:51;;;;;;;;;16.25;16.25;;;;;;;;4978721;28;45437;-65
2022/08/16 13:59:17;;;;;;;;;18.50;17.50;;;;;;;;4979287;28;45406;-67
2022/08/16 14:01:42;;;;;;;;;16.00;16.00;;;;;;;;4978645;28;45473;-67
2022/08/16 14:04:08;;;;;;;;;14.25;14.25;;;;;;;;4978611;28;46048;-67
2022/08/16 14:06:33;;;;;;;;;14.00;14.00;;;;;;;;4978684;28;45843;-67
2022/08/16 14:08:58;;;;;;;;;17.50;17.50;;;;;;;;4978921;28;45401;-67
2022/08/16 14:11:23;;;;;;;;;17.50;17.50;;;;;;;;4978636;28;45477;-66
2022/08/16 14:13:49;;;;;;;;;16.00;16.00;;;;;;;;4978318;28;45399;-65